Time;durP1;ratioP1;P1;durP2;ratioP2;P2;SDS_P1;SDS_P2;PMS_P1;PMS_P2;Temp;Humidity;BMP_temperature;BMP_pressure;BME280_temperature;BME280_humidity;BME280_pressure;Samples;Min_cycle;Max_cycle;Signal;HPM_P1;HPM_P2
2022/09/22 00:01:36;;;;;;;19.70;10.27;;;;;;;;;;5036794;28;20048;-78
2022/09/22 00:04:06;;;;;;;17.85;9.85;;;;;;;;;;5044927;28;20040;-78
2022/09/22 00:06:35;;;;;;;19.02;9.75;;;;;;;;;;5038610;28;20048;-78
2022/09/22 00:09:01;;;;;;;19.42;10.48;;;;;;;;;;5042420;28;20033;-79
2022/09/22 00:11:33;;;;;;;17.73;9.88;;;;;;;;;;5021989;28;20095;-79
2022/09/22 00:14:05;;;;;;;28.25;10.00;;;;;;;;;;5042534;28;20029;-79
2022/09/22 00:16:36;;;;;;;19.92;10.35;;;;;;;;;;5041370;28;20033;-80
2022/09/22 00:19:04;;;;;;;18.65;10.25;;;;;;;;;;5039059;28;20025;-79
2022/09/22 00:21:29;;;;;;;19.00;10.80;;;;;;;;;;5041398;28;20056;-78
2022/09/22 00:23:55;;;;;;;16.95;9.25;;;;;;;;;;5045832;28;20049;-79
2022/09/22 00:26:22;;;;;;;18.45;10.32;;;;;;;;;;5031222;28;20086;-79
2022/09/22 00:28:50;;;;;;;17.25;9.80;;;;;;;;;;5040031;28;20048;-79
2022/09/22 00:31:21;;;;;;;19.83;10.20;;;;;;;;;;5040457;28;20033;-79
2022/09/22 00:33:47;;;;;;;19.70;10.68;;;;;;;;;;5039262;28;20032;-79
2022/09/22 00:36:14;;;;;;;19.25;10.25;;;;;;;;;;5040057;28;20041;-79
2022/09/22 00:38:40;;;;;;;18.17;9.50;;;;;;;;;;5038535;28;20101;-79
2022/09/22 00:41:14;;;;;;;15.52;9.50;;;;;;;;;;5042238;28;20032;-78
2022/09/22 00:43:40;;;;;;;18.30;9.45;;;;;;;;;;5036158;28;20033;-79
2022/09/22 00:46:27;;;;;;;18.77;9.68;;;;;;;;;;5025066;28;20086;-79
2022/09/22 00:49:05;;;;;;;17.38;9.52;;;;;;;;;;5037254;28;20518;-79
2022/09/22 00:51:36;;;;;;;16.65;9.40;;;;;;;;;;5038578;28;20754;-80
2022/09/22 00:54:05;;;;;;;18.13;10.85;;;;;;;;;;5040256;28;20029;-80
2022/09/22 00:56:37;;;;;;;18.33;10.30;;;;;;;;;;5037012;28;20026;-79
2022/09/22 00:59:08;;;;;;;16.15;10.23;;;;;;;;;;5042710;28;20126;-79
2022/09/22 01:01:38;;;;;;;18.15;9.70;;;;;;;;;;5029413;28;20033;-79
2022/09/22 01:04:04;;;;;;;21.95;12.38;;;;;;;;;;5044127;28;20037;-79
2022/09/22 01:06:31;;;;;;;23.38;10.45;;;;;;;;;;5035539;28;20039;-78
2022/09/22 01:08:59;;;;;;;18.55;10.07;;;;;;;;;;5028944;28;20022;-80
2022/09/22 01:11:26;;;;;;;17.45;10.00;;;;;;;;;;5036468;28;20037;-79
2022/09/22 01:14:16;;;;;;;18.23;10.20;;;;;;;;;;5037458;28;20025;-79
2022/09/22 01:17:07;;;;;;;15.88;9.95;;;;;;;;;;5050446;28;20633;-79
2022/09/22 01:19:42;;;;;;;19.17;10.27;;;;;;;;;;5028429;28;20543;-79
2022/09/22 01:22:33;;;;;;;15.73;9.63;;;;;;;;;;5040585;28;20417;-80
2022/09/22 01:25:34;;;;;;;17.58;10.20;;;;;;;;;;5039165;28;20086;-79
2022/09/22 01:28:31;;;;;;;16.98;10.25;;;;;;;;;;5041445;28;20037;-79
2022/09/22 01:31:18;;;;;;;16.45;10.02;;;;;;;;;;5035751;28;20501;-79
2022/09/22 01:34:14;;;;;;;14.40;9.27;;;;;;;;;;5038307;28;20064;-79
2022/09/22 01:36:57;;;;;;;16.67;9.13;;;;;;;;;;5028781;28;20056;-80
2022/09/22 01:39:31;;;;;;;16.15;8.88;;;;;;;;;;5038787;28;20037;-79
2022/09/22 01:41:59;;;;;;;19.55;9.70;;;;;;;;;;5035125;28;20029;-80
2022/09/22 01:44:42;;;;;;;17.85;9.35;;;;;;;;;;5035400;28;20034;-79
2022/09/22 01:47:18;;;;;;;16.33;8.98;;;;;;;;;;5023028;28;20029;-80
2022/09/22 01:49:50;;;;;;;16.80;9.65;;;;;;;;;;5058555;28;20731;-80
2022/09/22 01:52:20;;;;;;;16.50;8.82;;;;;;;;;;5059914;28;20033;-77
2022/09/22 01:54:54;;;;;;;15.10;8.55;;;;;;;;;;5030009;28;20029;-78
2022/09/22 01:57:28;;;;;;;14.25;8.52;;;;;;;;;;5033613;28;20033;-79
2022/09/22 02:00:00;;;;;;;15.40;9.00;;;;;;;;;;5043337;28;20100;-77
2022/09/22 02:02:33;;;;;;;16.40;8.98;;;;;;;;;;5037179;28;20049;-77
2022/09/22 02:05:03;;;;;;;16.05;8.35;;;;;;;;;;5036175;28;20033;-78
2022/09/22 02:07:37;;;;;;;16.55;8.38;;;;;;;;;;5042065;28;20060;-78
2022/09/22 02:10:10;;;;;;;15.50;9.38;;;;;;;;;;5036588;28;20029;-81
2022/09/22 02:12:36;;;;;;;12.55;8.10;;;;;;;;;;5040927;28;20044;-78
2022/09/22 02:15:58;;;;;;;14.73;8.38;;;;;;;;;;5037038;28;20022;-78
2022/09/22 02:17:56;;;;;;;16.52;8.73;;;;;;;;;;5029926;28;20025;-79
2022/09/22 02:20:22;;;;;;;13.90;8.55;;;;;;;;;;5039860;28;20036;-79
2022/09/22 02:22:48;;;;;;;15.32;8.88;;;;;;;;;;5032901;28;20413;-79
2022/09/22 02:25:13;;;;;;;14.63;9.00;;;;;;;;;;5036783;28;20025;-79
2022/09/22 02:27:40;;;;;;;15.75;8.95;;;;;;;;;;5021395;28;20048;-78
2022/09/22 02:30:09;;;;;;;14.32;8.13;;;;;;;;;;5035905;28;20021;-79
2022/09/22 02:32:37;;;;;;;14.18;9.35;;;;;;;;;;5038947;28;20031;-79
2022/09/22 02:35:03;;;;;;;17.73;8.63;;;;;;;;;;5035475;28;20022;-79
2022/09/22 02:37:40;;;;;;;14.63;8.57;;;;;;;;;;5039074;28;20572;-79
2022/09/22 02:40:24;;;;;;;19.27;9.10;;;;;;;;;;5035775;28;20132;-79
2022/09/22 02:42:56;;;;;;;16.10;9.13;;;;;;;;;;5044964;28;20080;-79
2022/09/22 02:45:33;;;;;;;17.55;9.77;;;;;;;;;;5038111;28;20100;-78
2022/09/22 02:48:09;;;;;;;17.98;8.50;;;;;;;;;;5037635;28;20033;-79
2022/09/22 02:50:36;;;;;;;21.38;10.15;;;;;;;;;;5029433;28;20036;-80
2022/09/22 02:53:08;;;;;;;15.02;8.65;;;;;;;;;;5035853;28;20110;-79
2022/09/22 02:55:34;;;;;;;13.70;8.52;;;;;;;;;;5023884;28;20033;-80
2022/09/22 02:57:59;;;;;;;16.27;8.70;;;;;;;;;;5042007;28;20021;-79
2022/09/22 03:00:25;;;;;;;14.75;8.20;;;;;;;;;;5034145;28;20036;-79
2022/09/22 03:02:51;;;;;;;16.27;9.05;;;;;;;;;;5040582;28;20084;-78
2022/09/22 03:05:16;;;;;;;14.25;8.43;;;;;;;;;;5034909;28;20108;-78
2022/09/22 03:07:42;;;;;;;14.95;8.80;;;;;;;;;;5041945;28;20064;-79
2022/09/22 03:10:08;;;;;;;12.68;7.68;;;;;;;;;;5036021;28;20040;-79
2022/09/22 03:12:33;;;;;;;13.75;7.20;;;;;;;;;;5041216;28;20065;-81
2022/09/22 03:14:59;;;;;;;14.23;8.10;;;;;;;;;;5033678;28;20553;-80
2022/09/22 03:17:24;;;;;;;16.20;8.85;;;;;;;;;;5023146;28;20090;-78
2022/09/22 03:19:49;;;;;;;17.15;9.38;;;;;;;;;;5037798;28;20056;-78
2022/09/22 03:22:15;;;;;;;13.15;8.05;;;;;;;;;;5038592;28;20650;-79
2022/09/22 03:24:40;;;;;;;16.15;8.85;;;;;;;;;;5043661;28;20027;-80
2022/09/22 03:27:06;;;;;;;16.50;8.18;;;;;;;;;;5039838;28;20029;-79
2022/09/22 03:29:31;;;;;;;17.90;8.32;;;;;;;;;;5043857;28;20548;-80
2022/09/22 03:31:57;;;;;;;14.70;7.90;;;;;;;;;;5039906;28;20125;-79
2022/09/22 03:34:22;;;;;;;15.88;9.10;;;;;;;;;;5043286;28;20052;-80
2022/09/22 03:36:48;;;;;;;15.68;9.60;;;;;;;;;;5038910;28;20045;-77
2022/09/22 03:39:13;;;;;;;17.80;9.20;;;;;;;;;;5043367;28;20020;-78
2022/09/22 03:41:40;;;;;;;15.25;9.10;;;;;;;;;;5043242;28;20698;-78
2022/09/22 03:44:06;;;;;;;14.63;8.23;;;;;;;;;;5039814;28;20033;-79
2022/09/22 03:46:31;;;;;;;13.68;8.00;;;;;;;;;;5042846;28;20036;-79
2022/09/22 03:48:58;;;;;;;20.05;9.27;;;;;;;;;;5038969;28;20039;-79
2022/09/22 03:51:24;;;;;;;21.30;8.60;;;;;;;;;;5025314;28;20131;-78
2022/09/22 03:53:49;;;;;;;12.07;7.72;;;;;;;;;;5038798;28;20112;-78
2022/09/22 03:56:15;;;;;;;21.90;8.48;;;;;;;;;;5042965;28;20083;-78
2022/09/22 03:58:41;;;;;;;16.27;8.73;;;;;;;;;;5038706;28;20104;-79
2022/09/22 04:01:10;;;;;;;13.60;7.65;;;;;;;;;;5040561;28;20139;-79
2022/09/22 04:03:36;;;;;;;15.63;8.55;;;;;;;;;;5037519;28;20369;-79
2022/09/22 04:06:02;;;;;;;13.93;8.43;;;;;;;;;;5044997;28;20040;-80
2022/09/22 04:08:28;;;;;;;12.48;7.97;;;;;;;;;;5044944;28;20500;-78
2022/09/22 04:10:54;;;;;;;13.38;8.38;;;;;;;;;;5036600;28;20037;-76
2022/09/22 04:13:19;;;;;;;15.60;8.63;;;;;;;;;;5037493;28;20052;-78
2022/09/22 04:15:45;;;;;;;15.63;8.57;;;;;;;;;;5042304;28;20380;-79
2022/09/22 04:18:13;;;;;;;15.75;9.27;;;;;;;;;;5040603;28;20060;-78
2022/09/22 04:20:42;;;;;;;13.75;8.60;;;;;;;;;;5037379;28;20852;-78
2022/09/22 04:23:07;;;;;;;18.48;9.38;;;;;;;;;;5043529;28;20082;-79
2022/09/22 04:25:33;;;;;;;14.80;8.90;;;;;;;;;;5039906;28;20037;-78
2022/09/22 04:27:58;;;;;;;16.67;9.82;;;;;;;;;;5042433;28;20172;-77
2022/09/22 04:30:23;;;;;;;15.40;9.23;;;;;;;;;;5021184;28;20624;-79
2022/09/22 04:32:49;;;;;;;18.40;9.23;;;;;;;;;;5024798;28;20084;-78
2022/09/22 04:35:15;;;;;;;17.25;10.25;;;;;;;;;;5021917;28;20032;-78
2022/09/22 04:37:41;;;;;;;19.15;10.32;;;;;;;;;;5041591;28;20044;-80
2022/09/22 04:40:08;;;;;;;16.50;9.45;;;;;;;;;;5040088;28;20033;-77
2022/09/22 04:42:33;;;;;;;19.23;9.65;;;;;;;;;;5035931;28;20033;-80
2022/09/22 04:45:00;;;;;;;12.30;8.05;;;;;;;;;;5038929;28;20044;-80
2022/09/22 04:47:28;;;;;;;16.02;10.02;;;;;;;;;;5039698;28;20033;-79
2022/09/22 04:49:53;;;;;;;12.73;9.32;;;;;;;;;;5040258;28;20041;-78
2022/09/22 04:52:20;;;;;;;19.55;10.00;;;;;;;;;;5037912;28;20045;-76
2022/09/22 04:54:45;;;;;;;16.70;9.57;;;;;;;;;;5038967;28;20027;-79
2022/09/22 04:57:11;;;;;;;19.55;10.30;;;;;;;;;;5039650;28;20037;-78
2022/09/22 04:59:36;;;;;;;18.13;9.98;;;;;;;;;;5029288;28;20388;-78
2022/09/22 05:02:02;;;;;;;15.48;9.27;;;;;;;;;;5038632;28;20475;-80
2022/09/22 05:04:28;;;;;;;18.13;9.57;;;;;;;;;;5040420;28;20033;-80
2022/09/22 05:06:54;;;;;;;14.15;7.90;;;;;;;;;;5044907;28;20037;-78
2022/09/22 05:09:20;;;;;;;18.05;8.52;;;;;;;;;;5039111;28;20025;-77
2022/09/22 05:11:47;;;;;;;19.48;9.15;;;;;;;;;;5033041;28;20507;-78
2022/09/22 05:14:14;;;;;;;17.20;9.45;;;;;;;;;;5030950;28;20029;-77
2022/09/22 05:16:41;;;;;;;18.60;8.18;;;;;;;;;;5021768;28;20040;-78
2022/09/22 05:19:08;;;;;;;18.63;12.75;;;;;;;;;;5033646;28;20041;-77
2022/09/22 05:21:35;;;;;;;20.25;9.90;;;;;;;;;;5025490;28;20064;-78
2022/09/22 05:24:01;;;;;;;16.75;8.95;;;;;;;;;;5023091;28;20033;-76
2022/09/22 05:26:26;;;;;;;17.90;8.93;;;;;;;;;;5006822;28;20512;-79
2022/09/22 05:28:52;;;;;;;17.38;9.48;;;;;;;;;;5037154;28;20057;-79
2022/09/22 05:31:18;;;;;;;15.00;8.77;;;;;;;;;;5038958;28;20033;-78
2022/09/22 05:33:43;;;;;;;17.02;9.02;;;;;;;;;;5038796;28;20037;-76
2022/09/22 05:36:09;;;;;;;13.35;8.93;;;;;;;;;;5037818;28;20034;-82
2022/09/22 05:38:35;;;;;;;14.35;7.53;;;;;;;;;;5032444;28;20564;-77
2022/09/22 05:41:02;;;;;;;14.00;8.57;;;;;;;;;;5038310;28;20039;-80
2022/09/22 05:43:28;;;;;;;11.38;7.88;;;;;;;;;;5035867;28;20036;-78
2022/09/22 05:45:54;;;;;;;17.98;8.82;;;;;;;;;;5039449;28;20085;-78
2022/09/22 05:48:19;;;;;;;19.17;9.18;;;;;;;;;;5040929;28;20770;-81
2022/09/22 05:50:45;;;;;;;15.90;8.30;;;;;;;;;;5026531;28;20433;-81
2022/09/22 05:53:11;;;;;;;12.57;8.70;;;;;;;;;;5033892;28;20044;-79
2022/09/22 05:55:38;;;;;;;17.08;8.68;;;;;;;;;;5034403;28;20018;-78
2022/09/22 05:58:04;;;;;;;22.95;8.90;;;;;;;;;;5040368;28;20108;-80
2022/09/22 06:00:30;;;;;;;18.13;9.05;;;;;;;;;;5037793;28;20112;-78
2022/09/22 06:02:56;;;;;;;12.88;7.88;;;;;;;;;;5032327;28;20033;-79
2022/09/22 06:05:22;;;;;;;13.52;7.97;;;;;;;;;;5021135;28;20032;-76
2022/09/22 06:07:58;;;;;;;15.20;9.75;;;;;;;;;;5027648;28;20469;-79
2022/09/22 06:10:26;;;;;;;14.30;8.40;;;;;;;;;;5025847;28;20020;-77
2022/09/22 06:13:13;;;;;;;14.50;7.95;;;;;;;;;;5030511;28;20033;-79
2022/09/22 06:15:39;;;;;;;15.73;9.10;;;;;;;;;;5030251;28;20153;-77
2022/09/22 06:18:07;;;;;;;13.18;8.50;;;;;;;;;;5029787;28;20028;-77
2022/09/22 06:20:34;;;;;;;16.23;8.77;;;;;;;;;;5031616;28;20028;-76
2022/09/22 06:23:00;;;;;;;16.85;9.52;;;;;;;;;;5014927;28;20033;-80
2022/09/22 06:25:27;;;;;;;19.88;9.48;;;;;;;;;;5024023;28;20053;-78
2022/09/22 06:28:03;;;;;;;14.05;8.82;;;;;;;;;;5027039;28;20377;-79
2022/09/22 06:30:30;;;;;;;10.65;7.13;;;;;;;;;;5033014;28;20553;-78
2022/09/22 06:32:55;;;;;;;17.67;8.25;;;;;;;;;;5027366;28;20041;-76
2022/09/22 06:35:21;;;;;;;13.15;7.65;;;;;;;;;;5020238;28;20275;-76
2022/09/22 06:37:55;;;;;;;13.57;8.68;;;;;;;;;;5016111;28;20049;-77
2022/09/22 06:40:21;;;;;;;14.45;8.77;;;;;;;;;;5019968;28;20021;-77
2022/09/22 06:42:48;;;;;;;23.73;8.90;;;;;;;;;;5020411;28;20278;-76
2022/09/22 06:45:16;;;;;;;13.70;7.80;;;;;;;;;;5026249;28;20041;-79
2022/09/22 06:47:42;;;;;;;13.38;8.65;;;;;;;;;;5008075;28;20194;-76
2022/09/22 06:50:08;;;;;;;14.23;8.55;;;;;;;;;;5028947;28;20033;-77
2022/09/22 06:52:36;;;;;;;15.65;8.20;;;;;;;;;;5034324;28;20033;-76
2022/09/22 06:55:02;;;;;;;12.43;7.97;;;;;;;;;;5030819;28;20028;-77
2022/09/22 06:57:29;;;;;;;14.10;7.63;;;;;;;;;;5026289;28;20032;-76
2022/09/22 06:59:55;;;;;;;15.60;8.35;;;;;;;;;;5026945;28;20032;-74
2022/09/22 07:02:27;;;;;;;11.60;7.38;;;;;;;;;;5031981;28;20117;-77
2022/09/22 07:04:58;;;;;;;12.73;7.72;;;;;;;;;;5032466;28;20037;-76
2022/09/22 07:07:26;;;;;;;9.60;6.97;;;;;;;;;;5036199;28;20151;-74
2022/09/22 07:09:52;;;;;;;13.50;7.30;;;;;;;;;;5033393;28;20025;-76
2022/09/22 07:12:18;;;;;;;15.85;8.40;;;;;;;;;;5028241;28;20090;-77
2022/09/22 07:14:47;;;;;;;15.55;9.30;;;;;;;;;;5032342;28;20044;-76
2022/09/22 07:17:17;;;;;;;16.05;8.05;;;;;;;;;;5020605;28;20037;-75
2022/09/22 07:19:45;;;;;;;12.50;6.95;;;;;;;;;;5037192;28;20029;-76
2022/09/22 07:22:14;;;;;;;12.85;7.82;;;;;;;;;;5023011;28;20800;-73
2022/09/22 07:24:41;;;;;;;11.60;7.45;;;;;;;;;;5030069;28;20124;-75
2022/09/22 07:27:09;;;;;;;12.88;8.48;;;;;;;;;;5020666;28;20059;-78
2022/09/22 07:29:38;;;;;;;12.70;7.85;;;;;;;;;;5022663;28;20036;-73
2022/09/22 07:32:04;;;;;;;15.50;8.52;;;;;;;;;;5024250;28;20040;-74
2022/09/22 07:34:30;;;;;;;12.80;8.32;;;;;;;;;;5031620;28;20405;-75
2022/09/22 07:36:58;;;;;;;15.68;9.18;;;;;;;;;;5013015;28;20084;-77
2022/09/22 07:39:24;;;;;;;14.18;7.72;;;;;;;;;;5025011;28;20040;-78
2022/09/22 07:41:49;;;;;;;12.60;8.23;;;;;;;;;;5028860;28;20033;-77
2022/09/22 07:47:00;;;;;;;12.10;7.85;;;;;;;;;;5000532;28;20527;-77
2022/09/22 07:49:26;;;;;;;18.50;9.25;;;;;;;;;;5014231;28;20029;-79
2022/09/22 07:51:55;;;;;;;12.55;8.35;;;;;;;;;;5024872;28;20021;-76
2022/09/22 07:54:21;;;;;;;15.00;7.72;;;;;;;;;;5028359;28;20036;-76
2022/09/22 07:56:50;;;;;;;16.90;9.65;;;;;;;;;;5011105;28;20771;-77
2022/09/22 07:59:16;;;;;;;12.48;7.05;;;;;;;;;;5008595;28;20037;-76
2022/09/22 08:01:46;;;;;;;12.82;7.40;;;;;;;;;;5026638;28;20456;-79
2022/09/22 08:04:15;;;;;;;8.93;6.10;;;;;;;;;;5014880;28;20033;-78
2022/09/22 08:06:45;;;;;;;13.60;6.95;;;;;;;;;;5012850;28;20057;-78
2022/09/22 08:09:12;;;;;;;12.65;6.55;;;;;;;;;;5011265;28;20112;-77
2022/09/22 08:11:38;;;;;;;10.82;5.75;;;;;;;;;;5014761;28;20030;-81
2022/09/22 08:14:10;;;;;;;7.35;6.15;;;;;;;;;;5009246;28;20029;-78
2022/09/22 08:16:38;;;;;;;11.35;5.38;;;;;;;;;;5016329;28;20144;-80
2022/09/22 08:19:11;;;;;;;9.52;4.28;;;;;;;;;;5011506;28;20425;-79
2022/09/22 08:21:39;;;;;;;10.02;4.55;;;;;;;;;;5009991;28;20043;-79
2022/09/22 08:24:07;;;;;;;8.15;3.53;;;;;;;;;;5008423;28;20466;-78
2022/09/22 08:26:36;;;;;;;8.75;4.28;;;;;;;;;;4995995;28;20199;-78
2022/09/22 08:29:05;;;;;;;7.88;3.85;;;;;;;;;;5026652;28;20033;-77
2022/09/22 08:31:31;;;;;;;4.68;3.42;;;;;;;;;;5015457;28;20026;-77
2022/09/22 08:33:57;;;;;;;8.30;4.00;;;;;;;;;;5032448;28;20028;-78
2022/09/22 08:36:26;;;;;;;9.13;4.15;;;;;;;;;;5012545;28;20092;-79
2022/09/22 08:39:03;;;;;;;9.68;4.43;;;;;;;;;;5030183;28;20033;-79
2022/09/22 08:41:30;;;;;;;7.90;4.30;;;;;;;;;;5017834;28;20049;-82
2022/09/22 08:44:14;;;;;;;7.75;3.80;;;;;;;;;;5020420;28;20033;-78
2022/09/22 08:46:45;;;;;;;6.00;2.65;;;;;;;;;;5022138;28;20037;-80
2022/09/22 08:52:19;;;;;;;6.55;3.17;;;;;;;;;;5012501;28;20115;-78
2022/09/22 08:54:45;;;;;;;5.25;3.53;;;;;;;;;;5010610;28;20033;-78
2022/09/22 08:57:30;;;;;;;7.68;3.10;;;;;;;;;;5019576;28;20512;-76
2022/09/22 09:00:02;;;;;;;6.35;2.97;;;;;;;;;;5027968;28;20109;-78
2022/09/22 09:02:39;;;;;;;7.93;3.53;;;;;;;;;;5023331;28;20061;-79
2022/09/22 09:05:33;;;;;;;6.72;2.95;;;;;;;;;;5011205;28;20077;-79
2022/09/22 09:08:21;;;;;;;6.75;3.70;;;;;;;;;;5028011;28;20040;-78
2022/09/22 09:11:06;;;;;;;5.40;3.30;;;;;;;;;;5013468;28;20044;-77
2022/09/22 09:13:41;;;;;;;6.57;3.10;;;;;;;;;;5022210;28;20132;-77
2022/09/22 09:16:19;;;;;;;5.68;2.97;;;;;;;;;;5018962;28;20099;-76
2022/09/22 09:18:55;;;;;;;5.38;3.00;;;;;;;;;;5024926;28;20034;-77
2022/09/22 09:21:23;;;;;;;7.25;2.95;;;;;;;;;;5015062;28;20579;-77
2022/09/22 09:23:52;;;;;;;5.05;3.10;;;;;;;;;;5029488;28;20095;-80
2022/09/22 09:26:18;;;;;;;6.35;2.78;;;;;;;;;;5024070;28;20346;-77
2022/09/22 09:28:49;;;;;;;8.02;3.50;;;;;;;;;;5026328;28;20034;-78
2022/09/22 09:31:19;;;;;;;;;;;;;;;;;;5013072;28;20113;-77
2022/09/22 09:33:47;;;;;;;5.60;2.13;;;;;;;;;;5023201;28;20018;-78
2022/09/22 09:36:18;;;;;;;7.18;2.70;;;;;;;;;;4998274;28;20563;-77
2022/09/22 09:38:54;;;;;;;4.07;2.72;;;;;;;;;;5025858;28;20033;-78
2022/09/22 09:41:31;;;;;;;12.00;3.55;;;;;;;;;;5034617;28;20036;-77
2022/09/22 09:44:01;;;;;;;12.82;3.70;;;;;;;;;;5033067;28;20033;-76
2022/09/22 09:46:53;;;;;;;5.93;3.58;;;;;;;;;;5027894;28;20040;-78
2022/09/22 09:49:20;;;;;;;8.65;2.63;;;;;;;;;;5024758;28;20047;-78
2022/09/22 09:51:52;;;;;;;4.93;2.90;;;;;;;;;;5036276;28;20029;-79
2022/09/22 09:54:19;;;;;;;4.32;2.25;;;;;;;;;;5036021;28;20021;-79
2022/09/22 09:57:09;;;;;;;5.68;3.63;;;;;;;;;;5030689;28;20021;-78
2022/09/22 10:02:34;;;;;;;4.32;1.70;;;;;;;;;;5044681;28;20106;-75
2022/09/22 10:05:01;;;;;;;2.72;1.70;;;;;;;;;;5030799;28;20120;-78
2022/09/22 10:07:30;;;;;;;11.70;6.80;;;;;;;;;;5018008;28;20032;-78
2022/09/22 10:10:33;;;;;;;3.78;1.98;;;;;;;;;;5031510;28;20084;-79
2022/09/22 10:13:04;;;;;;;4.32;1.80;;;;;;;;;;5027095;28;20033;-78
2022/09/22 10:15:32;;;;;;;2.10;1.40;;;;;;;;;;5027726;28;20022;-80
2022/09/22 10:17:58;;;;;;;7.22;1.55;;;;;;;;;;5028121;28;20033;-77
2022/09/22 10:20:30;;;;;;;8.45;2.33;;;;;;;;;;5009822;28;20042;-78
2022/09/22 10:23:19;;;;;;;3.00;1.88;;;;;;;;;;5021532;28;20416;-80
2022/09/22 10:25:45;;;;;;;7.32;1.88;;;;;;;;;;5033826;28;20034;-80
2022/09/22 10:28:24;;;;;;;2.97;1.60;;;;;;;;;;5029695;28;20103;-77
2022/09/22 10:31:03;;;;;;;1.83;1.23;;;;;;;;;;5023706;28;20056;-80
2022/09/22 10:33:29;;;;;;;5.05;1.90;;;;;;;;;;5011166;28;20106;-79
2022/09/22 10:36:11;;;;;;;8.90;2.45;;;;;;;;;;5019215;28;20040;-80
2022/09/22 10:38:41;;;;;;;5.22;1.77;;;;;;;;;;5014661;28;20591;-79
2022/09/22 10:41:26;;;;;;;4.80;2.10;;;;;;;;;;5031516;28;20449;-78
2022/09/22 10:44:02;;;;;;;2.40;0.93;;;;;;;;;;5038577;28;20283;-79
2022/09/22 10:46:48;;;;;;;1.85;1.23;;;;;;;;;;5025373;28;20044;-79
2022/09/22 10:49:32;;;;;;;2.35;1.30;;;;;;;;;;5032683;28;20140;-76
2022/09/22 10:52:07;;;;;;;7.97;6.55;;;;;;;;;;5029624;28;20040;-78
2022/09/22 10:54:42;;;;;;;2.90;2.33;;;;;;;;;;5027004;28;20033;-78
2022/09/22 10:57:27;;;;;;;1.60;1.27;;;;;;;;;;5025983;28;20465;-82
2022/09/22 11:00:08;;;;;;;3.72;2.08;;;;;;;;;;5032321;28;20045;-78
2022/09/22 11:02:59;;;;;;;8.75;1.63;;;;;;;;;;5035313;28;20067;-79
2022/09/22 11:14:30;;;;;;;2.70;1.02;;;;;;;;;;5037343;28;20590;-78
2022/09/22 11:17:17;;;;;;;1.63;1.23;;;;;;;;;;5033147;28;20049;-80
2022/09/22 11:20:14;;;;;;;2.17;1.67;;;;;;;;;;5038882;28;20032;-78
2022/09/22 11:22:50;;;;;;;5.30;2.30;;;;;;;;;;5033071;28;20032;-79
2022/09/22 11:25:26;;;;;;;7.75;4.47;;;;;;;;;;5035687;28;20500;-77
2022/09/22 11:28:09;;;;;;;1.50;1.20;;;;;;;;;;5033788;28;20041;-78
2022/09/22 11:30:50;;;;;;;1.92;1.50;;;;;;;;;;5037472;28;20144;-77
2022/09/22 11:33:35;;;;;;;3.88;1.35;;;;;;;;;;5034334;28;20149;-78
2022/09/22 11:36:09;;;;;;;3.10;1.90;;;;;;;;;;5018984;28;20862;-79
2022/09/22 11:38:43;;;;;;;1.30;1.20;;;;;;;;;;5029453;28;20239;-78
2022/09/22 11:41:24;;;;;;;6.20;2.38;;;;;;;;;;5026695;28;20347;-75
2022/09/22 11:44:04;;;;;;;5.00;2.15;;;;;;;;;;5029875;28;20174;-78
2022/09/22 11:47:08;;;;;;;4.38;1.52;;;;;;;;;;5038684;28;20547;-80
2022/09/22 11:49:53;;;;;;;3.60;1.73;;;;;;;;;;5038348;28;20442;-80
2022/09/22 11:53:01;;;;;;;5.28;2.42;;;;;;;;;;5019009;28;20033;-77
2022/09/22 11:55:47;;;;;;;2.50;1.60;;;;;;;;;;5024648;28;20477;-77
2022/09/22 11:58:18;;;;;;;7.00;3.10;;;;;;;;;;5031174;28;20631;-76
2022/09/22 12:01:05;;;;;;;;;;;;;;;;;;5029885;28;20558;-77
2022/09/22 12:03:39;;;;;;;1.08;0.90;;;;;;;;;;5031722;28;19927;-77
2022/09/22 12:06:11;;;;;;;2.95;1.77;;;;;;;;;;5028254;28;20664;-78
2022/09/22 12:08:53;;;;;;;3.95;1.75;;;;;;;;;;5022536;28;20033;-76
2022/09/22 12:11:20;;;;;;;3.42;2.42;;;;;;;;;;5033066;28;20133;-77
2022/09/22 12:13:49;;;;;;;24.38;16.80;;;;;;;;;;5011849;28;20048;-77
2022/09/22 12:16:23;;;;;;;3.97;2.75;;;;;;;;;;5023937;28;20056;-74
2022/09/22 12:19:05;;;;;;;2.38;1.10;;;;;;;;;;5014918;28;20586;-78
2022/09/22 12:21:49;;;;;;;3.05;1.50;;;;;;;;;;5032033;28;20488;-78
2022/09/22 12:24:15;;;;;;;2.50;1.05;;;;;;;;;;5036909;28;20037;-77
2022/09/22 12:26:43;;;;;;;7.70;1.60;;;;;;;;;;5018642;28;20118;-76
2022/09/22 12:29:24;;;;;;;4.53;3.88;;;;;;;;;;5030242;28;20049;-79
2022/09/22 12:31:54;;;;;;;5.07;2.28;;;;;;;;;;5037283;28;20029;-78
2022/09/22 12:34:38;;;;;;;2.50;1.65;;;;;;;;;;5026609;28;20037;-79
2022/09/22 12:37:30;;;;;;;2.38;1.98;;;;;;;;;;5011819;28;20389;-79
2022/09/22 12:40:05;;;;;;;11.70;6.10;;;;;;;;;;5025923;28;20060;-78
2022/09/22 12:42:36;;;;;;;6.88;1.98;;;;;;;;;;5015922;28;20037;-77
2022/09/22 12:45:18;;;;;;;8.48;2.95;;;;;;;;;;5035454;28;20048;-76
2022/09/22 12:47:50;;;;;;;3.92;1.48;;;;;;;;;;5025580;28;20442;-77
2022/09/22 12:50:36;;;;;;;12.90;2.42;;;;;;;;;;5027852;28;20075;-76
2022/09/22 12:53:10;;;;;;;4.45;2.65;;;;;;;;;;5028976;28;20167;-78
2022/09/22 12:55:39;;;;;;;6.68;2.13;;;;;;;;;;5019483;28;20029;-79
2022/09/22 12:58:21;;;;;;;3.60;2.20;;;;;;;;;;5020023;28;20552;-80
2022/09/22 13:00:55;;;;;;;7.30;2.80;;;;;;;;;;5037679;28;20053;-78
2022/09/22 13:03:24;;;;;;;3.42;1.60;;;;;;;;;;5027704;28;20032;-77
2022/09/22 13:06:03;;;;;;;4.43;1.50;;;;;;;;;;5026133;28;20365;-79
2022/09/22 13:08:29;;;;;;;6.13;2.00;;;;;;;;;;5020907;28;20040;-78
2022/09/22 13:11:15;;;;;;;3.92;1.83;;;;;;;;;;5031124;28;20032;-79
2022/09/22 13:13:46;;;;;;;6.20;2.42;;;;;;;;;;5019104;28;20064;-77
2022/09/22 13:16:14;;;;;;;4.10;2.10;;;;;;;;;;5038530;28;20507;-78
2022/09/22 13:18:59;;;;;;;3.35;1.90;;;;;;;;;;5036364;28;20286;-78
2022/09/22 13:21:32;;;;;;;10.85;2.55;;;;;;;;;;5035348;28;20029;-79
2022/09/22 13:24:00;;;;;;;3.63;1.48;;;;;;;;;;5022685;28;20400;-77
2022/09/22 13:26:36;;;;;;;5.10;3.45;;;;;;;;;;5039936;28;20033;-80
2022/09/22 13:29:18;;;;;;;5.28;2.22;;;;;;;;;;5025573;28;20032;-81
2022/09/22 13:31:49;;;;;;;30.60;21.38;;;;;;;;;;5016490;28;20099;-79
2022/09/22 13:34:34;;;;;;;6.28;2.88;;;;;;;;;;5035370;28;20101;-80
2022/09/22 13:37:07;;;;;;;3.78;1.10;;;;;;;;;;5000769;28;20057;-83
2022/09/22 13:39:36;;;;;;;8.05;1.88;;;;;;;;;;5034504;28;20040;-79
2022/09/22 13:42:12;;;;;;;2.22;1.40;;;;;;;;;;5038397;28;20477;-81
2022/09/22 13:44:40;;;;;;;2.72;0.95;;;;;;;;;;5022784;28;20025;-79
2022/09/22 13:47:15;;;;;;;4.68;2.03;;;;;;;;;;5036158;28;20040;-78
2022/09/22 13:49:46;;;;;;;3.67;1.52;;;;;;;;;;5002613;28;20706;-78
2022/09/22 13:52:17;;;;;;;2.88;1.85;;;;;;;;;;5040140;28;20040;-78
2022/09/22 13:54:45;;;;;;;8.77;1.35;;;;;;;;;;5018299;28;20029;-79
2022/09/22 13:57:21;;;;;;;6.90;2.28;;;;;;;;;;5036656;28;20481;-76
2022/09/22 13:59:47;;;;;;;2.22;1.23;;;;;;;;;;5024407;28;20040;-81
2022/09/22 14:02:13;;;;;;;1.73;1.08;;;;;;;;;;5036798;28;20041;-79
2022/09/22 14:04:49;;;;;;;4.22;2.55;;;;;;;;;;5032840;28;20029;-77
2022/09/22 14:07:16;;;;;;;2.92;1.20;;;;;;;;;;5022582;28;20072;-78
2022/09/22 14:09:43;;;;;;;2.78;1.45;;;;;;;;;;5021090;28;20036;-81
2022/09/22 14:12:09;;;;;;;4.70;2.85;;;;;;;;;;5030483;28;20075;-78
2022/09/22 14:14:35;;;;;;;2.70;1.77;;;;;;;;;;5043781;28;21456;-80
2022/09/22 14:17:05;;;;;;;3.92;1.80;;;;;;;;;;5028869;28;20043;-79
2022/09/22 14:19:43;;;;;;;1.65;0.93;;;;;;;;;;5047082;28;20097;-80
2022/09/22 14:22:18;;;;;;;9.98;2.55;;;;;;;;;;5021459;28;20064;-78
2022/09/22 14:24:51;;;;;;;3.30;0.90;;;;;;;;;;5041166;28;20037;-81
2022/09/22 14:27:21;;;;;;;3.78;1.00;;;;;;;;;;5031197;28;20033;-78
2022/09/22 14:29:50;;;;;;;5.93;2.50;;;;;;;;;;5039586;28;20358;-77
2022/09/22 14:32:23;;;;;;;11.20;6.15;;;;;;;;;;5036140;28;20044;-77
2022/09/22 14:35:01;;;;;;;4.47;1.45;;;;;;;;;;5020768;28;20133;-78
2022/09/22 14:37:42;;;;;;;5.88;1.30;;;;;;;;;;5022045;28;20570;-75
2022/09/22 14:40:19;;;;;;;1.80;1.08;;;;;;;;;;5019350;28;20036;-79
2022/09/22 14:42:56;;;;;;;6.63;3.20;;;;;;;;;;5035458;28;20040;-77
2022/09/22 14:45:23;;;;;;;7.57;1.60;;;;;;;;;;5038011;28;20045;-81
2022/09/22 14:48:10;;;;;;;7.65;1.35;;;;;;;;;;5034978;28;20044;-78
2022/09/22 14:50:57;;;;;;;3.72;1.70;;;;;;;;;;5043966;28;20384;-78
2022/09/22 14:53:36;;;;;;;5.60;2.42;;;;;;;;;;5046695;28;20025;-79
2022/09/22 14:56:05;;;;;;;2.33;1.92;;;;;;;;;;5048969;28;20029;-79
2022/09/22 14:58:37;;;;;;;3.95;2.33;;;;;;;;;;5015662;28;20029;-77
2022/09/22 15:04:17;;;;;;;5.65;2.20;;;;;;;;;;5027791;28;20115;-78
2022/09/22 15:06:45;;;;;;;6.28;3.13;;;;;;;;;;5035169;28;20087;-79
2022/09/22 15:09:28;;;;;;;2.60;2.00;;;;;;;;;;5038224;28;20037;-81
2022/09/22 15:11:56;;;;;;;6.50;3.25;;;;;;;;;;5028378;28;20060;-77
2022/09/22 15:14:43;;;;;;;4.47;2.50;;;;;;;;;;5019624;28;20108;-77
2022/09/22 15:20:18;;;;;;;4.45;2.08;;;;;;;;;;5045401;28;20424;-78
2022/09/22 15:22:45;;;;;;;2.80;2.00;;;;;;;;;;5031029;28;20116;-78
2022/09/22 15:25:17;;;;;;;8.07;3.08;;;;;;;;;;5040371;28;20037;-79
2022/09/22 15:27:43;;;;;;;5.97;3.22;;;;;;;;;;5041025;28;20032;-79